Greenbrier Valley Airport
KLWB : now visible

Airfield :











YOU CAN JOIN US ON...

 
LOGIN :

Register | Disclaimer

   EN    FR    IT 

 









Legend :    VFR   Marginal VFR   IFR   Intensive IFR   Very Intensive IFR
Visi :
Ceiling :
>= 8 km
>= 3000ft
5 to 8 km
1000 to 3000 ft
1500m to 5 km
500 to 1000 ft
800 to 1500m
200 to 500 ft
< 800m
< 200 ft
Symbols :   Thunderstorms  Fog  Heavy snow  Heavy precipitations  Wind > 20 kt






- Airport Elevation : 2302 ft


KLWB - Greenbrier Valley

CURRENT METAR :
  • 241135Z AUTO 00000KT 10SM SCT013 BKN022 OVC085 14/13 A3008 RMK AO2 T01410131

EXPIRED METARs :
  • 241115Z AUTO 00000KT 10SM -DZ OVC013 14/13 A3008 RMK AO2 T01400130
  • 241055Z AUTO 00000KT 7SM -RA OVC015 13/12 A3008 RMK AO2 T01320122
  • 241035Z AUTO 00000KT 7SM -DZ BKN017 OVC028 13/12 A3008 RMK AO2 T01250115
  • 241015Z AUTO 00000KT 10SM SCT019 BKN110 13/12 A3007 RMK AO2 T01280117
  • 240955Z AUTO 00000KT 10SM SCT100 12/11 A3007 RMK AO2 T01240114
  • 240935Z AUTO 00000KT 10SM SCT024 SCT034 BKN100 12/11 A3007 RMK AO2 T01230113
  • 240915Z AUTO 00000KT 10SM -RA SCT024 BKN036 OVC110 13/12 A3006 RMK AO2 T01250115
  • 240855Z AUTO 00000KT 10SM -RA SCT027 SCT031 BKN100 12/11 A3006 RMK AO2 T01170107

TAF KLWB
Valid from the 24 at 12:00 until the 25 at 12:00 UTC


241120Z 2412/2512 VRB03KT P6SM -SHRA BKN018 OVC028
TEMPO 2414/2416 4SM -SHRA BR BKN009
FM241600 29005KT P6SM BKN022 OVC070
FM250100 VRB03KT P6SM OVC012
FM250600 05003KT 3SM BR OVC004
KZDC FIR / North America



MET'MAP, your aeronautical weather chart ! - Copyright ORBIFLY December 2007 - Disclaimer

ORBIFLY MET'MAP TEAM :

Programming & Development : Alexandra Zaïnal
Concept & original design : Baudouin d'Aumeries
Assistance for programming : Marc-Olivier Méhu
Technical & hardware support : Manuel Goepfert

Contact : metmap@orbifly.com




SOURCES & CREDITS :

   NOAA       Earth
Advisory